OCN1GN LEIB-EDDF
Flight info
| Callsign | OCN1GN |
|---|---|
| Flight time | 1h 59m |
| Altitude | 36000 |
| Route | KABRE DCT ELTAN N853 LUMAS DCT MAXIR DCT LUSOL DCT BODRU DCT OKTET DCT IRMAR DCT KINES DCT VANAS DCT ESOKO DCT GODRA/N0434F370 DCT LADOL/N0432F360 T163 EMPAX EMPAX5B |
| Aircraft | A320/M-SDE3FGHIRWY/LB1 |
Departure
| Time | 2026-05-04 10:57 |
|---|---|
| Airport | Ibiza Airport (LEIB) |
Arrival
| Time | 2026-05-04 12:57 |
|---|---|
| Airport | Frankfurt Main Airport (EDDF) |
| Time | Latitude | Longitude | Altitude | Speed | Heading |
|---|---|---|---|---|---|
| 2026-05-04 10:36 | 38.87517 | 1.37139 | 9 ft | 0 kts | 332° |
| 2026-05-04 10:36 | 38.87516 | 1.37139 | 9 ft | 0 kts | 332° |
| 2026-05-04 10:42 | 38.87517 | 1.37139 | 9 ft | 0 kts | 332° |
| 2026-05-04 10:43 | 38.87516 | 1.37139 | 8 ft | 0 kts | 332° |
| 2026-05-04 10:51 | 38.87660 | 1.37502 | 8 ft | 8 kts | 148° |
| 2026-05-04 10:52 | 38.87614 | 1.37536 | 9 ft | 7 kts | 149° |
| 2026-05-04 10:52 | 38.87583 | 1.37584 | 9 ft | 8 kts | 86° |
| 2026-05-04 10:52 | 38.87606 | 1.37639 | 9 ft | 8 kts | 60° |
| 2026-05-04 10:54 | 38.87841 | 1.38205 | 9 ft | 12 kts | 62° |
| 2026-05-04 10:54 | 38.87877 | 1.38291 | 9 ft | 10 kts | 61° |
| 2026-05-04 10:56 | 38.87814 | 1.38603 | 11 ft | 28 kts | 243° |
| 2026-05-04 10:56 | 38.87638 | 1.38168 | 14 ft | 87 kts | 242° |
| 2026-05-04 10:56 | 38.87260 | 1.37253 | 12 ft | 142 kts | 242° |
| 2026-05-04 10:57 | 38.86771 | 1.36041 | 467 ft | 152 kts | 241° |
| 2026-05-04 10:57 | 38.86184 | 1.34930 | 1170 ft | 150 kts | 227° |
| 2026-05-04 10:57 | 38.85468 | 1.33931 | 1700 ft | 161 kts | 226° |
| 2026-05-04 10:57 | 38.84649 | 1.32823 | 2073 ft | 178 kts | 227° |
| 2026-05-04 10:58 | 38.83753 | 1.31602 | 2374 ft | 199 kts | 227° |
| 2026-05-04 10:58 | 38.82777 | 1.30254 | 2836 ft | 213 kts | 227° |
| 2026-05-04 10:58 | 38.81772 | 1.28852 | 3614 ft | 213 kts | 227° |
| 2026-05-04 10:58 | 38.80668 | 1.27557 | 4345 ft | 219 kts | 208° |
| 2026-05-04 10:59 | 38.79138 | 1.27183 | 4873 ft | 240 kts | 174° |
| 2026-05-04 10:59 | 38.77434 | 1.27632 | 5349 ft | 258 kts | 171° |
| 2026-05-04 10:59 | 38.75662 | 1.28086 | 6092 ft | 265 kts | 172° |
| 2026-05-04 10:59 | 38.73841 | 1.28525 | 6945 ft | 268 kts | 173° |
| 2026-05-04 11:00 | 38.71994 | 1.28950 | 7704 ft | 273 kts | 174° |
| 2026-05-04 11:01 | 38.58869 | 1.33994 | 12941 ft | 322 kts | 133° |
| 2026-05-04 11:02 | 38.57825 | 1.36684 | 13089 ft | 357 kts | 108° |
| 2026-05-04 11:02 | 38.57341 | 1.39898 | 13327 ft | 377 kts | 103° |
| 2026-05-04 11:05 | 38.67542 | 1.88000 | 20534 ft | 449 kts | 60° |
| 2026-05-04 11:06 | 38.69082 | 1.91487 | 20969 ft | 453 kts | 61° |
| 2026-05-04 11:06 | 38.70629 | 1.95016 | 21444 ft | 456 kts | 61° |
| 2026-05-04 11:06 | 38.72181 | 1.98564 | 21902 ft | 459 kts | 62° |
| 2026-05-04 11:06 | 38.73751 | 2.02145 | 22339 ft | 462 kts | 62° |
| 2026-05-04 11:08 | 38.85048 | 2.27871 | 25044 ft | 482 kts | 62° |
| 2026-05-04 11:10 | 38.96678 | 2.54591 | 27429 ft | 498 kts | 62° |
| 2026-05-04 11:12 | 39.08584 | 2.82215 | 29579 ft | 513 kts | 62° |
| 2026-05-04 11:12 | 39.10320 | 2.86261 | 29873 ft | 515 kts | 62° |
| 2026-05-04 11:12 | 39.12059 | 2.90309 | 30136 ft | 517 kts | 62° |
| 2026-05-04 11:12 | 39.13810 | 2.94384 | 30364 ft | 519 kts | 61° |
| 2026-05-04 11:13 | 39.15542 | 2.98472 | 30590 ft | 521 kts | 62° |
| 2026-05-04 11:13 | 39.17232 | 3.02621 | 30818 ft | 523 kts | 63° |
| 2026-05-04 11:13 | 39.18880 | 3.06810 | 31015 ft | 525 kts | 64° |
| 2026-05-04 11:13 | 39.20484 | 3.10965 | 31317 ft | 524 kts | 64° |
| 2026-05-04 11:16 | 39.36905 | 3.52837 | 34361 ft | 521 kts | 64° |
| 2026-05-04 11:16 | 39.38530 | 3.57018 | 34641 ft | 521 kts | 64° |
| 2026-05-04 11:16 | 39.40153 | 3.61206 | 34904 ft | 520 kts | 64° |
| 2026-05-04 11:17 | 39.41776 | 3.65389 | 35157 ft | 520 kts | 64° |
| 2026-05-04 11:17 | 39.43397 | 3.69557 | 35399 ft | 519 kts | 64° |
| 2026-05-04 11:19 | 39.54659 | 3.98646 | 36012 ft | 515 kts | 64° |
| 2026-05-04 11:19 | 39.56251 | 4.02796 | 36009 ft | 515 kts | 64° |
| 2026-05-04 11:19 | 39.60223 | 4.10457 | 36005 ft | 511 kts | 43° |
| 2026-05-04 11:20 | 39.62854 | 4.13521 | 36008 ft | 506 kts | 32° |
| 2026-05-04 11:20 | 39.65791 | 4.15958 | 36007 ft | 500 kts | 22° |
| 2026-05-04 11:20 | 39.72229 | 4.18877 | 36002 ft | 482 kts | 2° |
| 2026-05-04 11:22 | 39.98634 | 4.24453 | 36033 ft | 483 kts | 3° |
| 2026-05-04 11:23 | 40.05240 | 4.26085 | 36026 ft | 482 kts | 3° |
| 2026-05-04 11:25 | 40.28330 | 4.31517 | 36023 ft | 481 kts | 3° |
| 2026-05-04 11:25 | 40.34878 | 4.33071 | 36017 ft | 481 kts | 3° |
| 2026-05-04 11:27 | 40.64586 | 4.40155 | 35999 ft | 483 kts | 3° |
| 2026-05-04 11:28 | 40.71206 | 4.41746 | 36000 ft | 483 kts | 3° |
| 2026-05-04 11:28 | 40.77822 | 4.43334 | 36004 ft | 483 kts | 3° |
| 2026-05-04 11:29 | 40.84447 | 4.44929 | 36017 ft | 484 kts | 3° |
| 2026-05-04 11:29 | 40.91067 | 4.46524 | 36006 ft | 484 kts | 3° |
| 2026-05-04 11:33 | 41.36303 | 4.57538 | 35995 ft | 485 kts | 3° |
| 2026-05-04 11:33 | 41.42930 | 4.59165 | 36012 ft | 484 kts | 3° |
| 2026-05-04 11:34 | 41.49549 | 4.60803 | 36037 ft | 483 kts | 3° |
| 2026-05-04 11:34 | 41.56166 | 4.62434 | 36027 ft | 483 kts | 3° |
| 2026-05-04 11:35 | 41.62769 | 4.64063 | 36019 ft | 482 kts | 3° |
| 2026-05-04 11:35 | 41.69328 | 4.65691 | 36037 ft | 483 kts | 5° |
| 2026-05-04 11:36 | 41.75752 | 4.68688 | 36012 ft | 497 kts | 23° |
| 2026-05-04 11:36 | 41.81730 | 4.73433 | 35993 ft | 499 kts | 26° |
| 2026-05-04 11:37 | 41.87687 | 4.78214 | 36006 ft | 500 kts | 26° |
| 2026-05-04 11:37 | 41.93653 | 4.83013 | 36023 ft | 500 kts | 26° |
| 2026-05-04 11:38 | 41.99616 | 4.87833 | 36028 ft | 500 kts | 26° |
| 2026-05-04 11:38 | 42.05593 | 4.92670 | 36021 ft | 500 kts | 26° |
| 2026-05-04 11:39 | 42.11554 | 4.97501 | 36030 ft | 500 kts | 26° |
| 2026-05-04 11:41 | 42.32338 | 5.14461 | 36043 ft | 498 kts | 26° |
| 2026-05-04 11:41 | 42.38235 | 5.19287 | 36045 ft | 498 kts | 27° |
| 2026-05-04 11:42 | 42.44191 | 5.24182 | 36053 ft | 497 kts | 27° |
| 2026-05-04 11:42 | 42.50058 | 5.29010 | 36065 ft | 497 kts | 27° |
| 2026-05-04 11:43 | 42.55977 | 5.33902 | 36042 ft | 496 kts | 27° |
| 2026-05-04 11:43 | 42.61863 | 5.38780 | 36048 ft | 495 kts | 27° |
| 2026-05-04 11:44 | 42.67740 | 5.43650 | 36041 ft | 494 kts | 26° |
| 2026-05-04 11:44 | 42.70812 | 5.45627 | 36043 ft | 483 kts | 12° |
| 2026-05-04 11:44 | 42.74005 | 5.47053 | 36037 ft | 482 kts | 12° |
| 2026-05-04 11:45 | 42.80396 | 5.49871 | 36040 ft | 483 kts | 12° |
| 2026-05-04 11:45 | 42.86789 | 5.52675 | 36036 ft | 482 kts | 12° |
| 2026-05-04 11:46 | 42.93137 | 5.55473 | 36059 ft | 483 kts | 12° |
| 2026-05-04 11:46 | 42.99537 | 5.58315 | 36056 ft | 483 kts | 12° |
| 2026-05-04 11:47 | 43.05922 | 5.61164 | 36044 ft | 483 kts | 12° |
| 2026-05-04 11:47 | 43.12313 | 5.64019 | 36066 ft | 483 kts | 12° |
| 2026-05-04 11:48 | 43.18710 | 5.66866 | 36041 ft | 483 kts | 12° |
| 2026-05-04 11:48 | 43.25114 | 5.69725 | 36034 ft | 484 kts | 12° |
| 2026-05-04 11:49 | 43.31523 | 5.72600 | 36051 ft | 484 kts | 12° |
| 2026-05-04 11:49 | 43.37916 | 5.75481 | 36055 ft | 483 kts | 12° |
| 2026-05-04 11:50 | 43.44300 | 5.78353 | 36056 ft | 483 kts | 12° |
| 2026-05-04 11:50 | 43.50640 | 5.81232 | 36066 ft | 482 kts | 13° |
| 2026-05-04 11:51 | 43.57022 | 5.84163 | 36059 ft | 482 kts | 13° |
| 2026-05-04 11:51 | 43.63390 | 5.87089 | 36061 ft | 482 kts | 13° |
| 2026-05-04 11:52 | 43.69755 | 5.90024 | 36071 ft | 482 kts | 13° |
| 2026-05-04 11:52 | 43.76118 | 5.92965 | 36076 ft | 482 kts | 13° |
| 2026-05-04 11:53 | 43.82482 | 5.95910 | 36078 ft | 482 kts | 13° |
| 2026-05-04 11:53 | 43.88837 | 5.98860 | 36088 ft | 482 kts | 14° |
| 2026-05-04 11:55 | 44.14199 | 6.10678 | 36093 ft | 480 kts | 14° |
| 2026-05-04 11:56 | 44.20521 | 6.13646 | 36091 ft | 479 kts | 14° |
| 2026-05-04 11:56 | 44.26786 | 6.16590 | 36105 ft | 478 kts | 14° |
| 2026-05-04 11:57 | 44.33098 | 6.19560 | 36100 ft | 478 kts | 14° |
| 2026-05-04 11:57 | 44.39401 | 6.22527 | 36096 ft | 477 kts | 14° |
| 2026-05-04 11:58 | 44.45704 | 6.25502 | 36132 ft | 478 kts | 14° |
| 2026-05-04 11:58 | 44.52005 | 6.28489 | 36133 ft | 478 kts | 14° |
| 2026-05-04 11:59 | 44.58301 | 6.31481 | 36129 ft | 478 kts | 15° |
| 2026-05-04 11:59 | 44.64600 | 6.34476 | 36128 ft | 477 kts | 15° |
| 2026-05-04 12:00 | 44.71089 | 6.37575 | 36136 ft | 478 kts | 15° |
| 2026-05-04 12:00 | 44.77136 | 6.40471 | 36144 ft | 477 kts | 15° |
| 2026-05-04 12:01 | 44.83440 | 6.43482 | 36153 ft | 477 kts | 15° |
| 2026-05-04 12:02 | 45.05387 | 6.54075 | 36166 ft | 475 kts | 15° |
| 2026-05-04 12:03 | 45.11640 | 6.57112 | 36160 ft | 474 kts | 15° |
| 2026-05-04 12:03 | 45.17883 | 6.60134 | 36147 ft | 474 kts | 15° |
| 2026-05-04 12:04 | 45.24119 | 6.63160 | 36145 ft | 474 kts | 16° |
| 2026-05-04 12:04 | 45.30348 | 6.66218 | 36146 ft | 473 kts | 16° |
| 2026-05-04 12:05 | 45.36563 | 6.69306 | 36135 ft | 474 kts | 17° |
| 2026-05-04 12:05 | 45.42680 | 6.72740 | 36136 ft | 475 kts | 20° |
| 2026-05-04 12:06 | 45.48572 | 6.77028 | 36134 ft | 477 kts | 29° |
| 2026-05-04 12:06 | 45.54270 | 6.81863 | 36125 ft | 477 kts | 28° |
| 2026-05-04 12:07 | 45.60018 | 6.86594 | 36124 ft | 476 kts | 28° |
| 2026-05-04 12:07 | 45.65756 | 6.91306 | 36140 ft | 476 kts | 28° |
| 2026-05-04 12:08 | 45.71477 | 6.96066 | 36135 ft | 476 kts | 28° |
| 2026-05-04 12:08 | 45.77195 | 7.00868 | 36140 ft | 475 kts | 28° |
| 2026-05-04 12:09 | 45.82875 | 7.05633 | 36124 ft | 475 kts | 28° |
| 2026-05-04 12:09 | 45.88580 | 7.10426 | 36117 ft | 475 kts | 28° |
| 2026-05-04 12:10 | 45.94267 | 7.15216 | 36113 ft | 473 kts | 28° |
| 2026-05-04 12:10 | 45.99925 | 7.20009 | 36074 ft | 472 kts | 29° |
| 2026-05-04 12:11 | 46.05548 | 7.24780 | 36052 ft | 470 kts | 29° |
| 2026-05-04 12:11 | 46.11188 | 7.29562 | 36039 ft | 470 kts | 29° |
| 2026-05-04 12:12 | 46.16823 | 7.34359 | 36046 ft | 470 kts | 29° |
| 2026-05-04 12:12 | 46.22448 | 7.39161 | 36039 ft | 469 kts | 29° |
| 2026-05-04 12:14 | 46.44871 | 7.58417 | 36011 ft | 469 kts | 29° |
| 2026-05-04 12:15 | 46.50473 | 7.63262 | 35998 ft | 469 kts | 29° |
| 2026-05-04 12:15 | 46.56094 | 7.68133 | 35991 ft | 470 kts | 29° |
| 2026-05-04 12:16 | 46.61727 | 7.72945 | 35987 ft | 469 kts | 27° |
| 2026-05-04 12:16 | 46.67502 | 7.77401 | 35987 ft | 469 kts | 25° |
| 2026-05-04 12:17 | 46.73287 | 7.81680 | 35988 ft | 469 kts | 25° |
| 2026-05-04 12:17 | 46.79075 | 7.86052 | 35983 ft | 469 kts | 26° |
| 2026-05-04 12:18 | 46.84853 | 7.90520 | 35985 ft | 469 kts | 26° |
| 2026-05-04 12:18 | 46.90609 | 7.95005 | 35995 ft | 469 kts | 26° |
| 2026-05-04 12:19 | 46.96383 | 7.99488 | 35986 ft | 469 kts | 26° |
| 2026-05-04 12:19 | 47.02155 | 8.03969 | 35987 ft | 469 kts | 26° |
| 2026-05-04 12:20 | 47.06961 | 8.07708 | 35987 ft | 470 kts | 26° |
| 2026-05-04 12:20 | 47.12726 | 8.12212 | 35987 ft | 470 kts | 26° |
| 2026-05-04 12:21 | 47.18496 | 8.16740 | 35991 ft | 470 kts | 26° |
| 2026-05-04 12:21 | 47.24237 | 8.21242 | 35991 ft | 470 kts | 26° |
| 2026-05-04 12:22 | 47.30006 | 8.25774 | 36003 ft | 470 kts | 26° |
| 2026-05-04 12:22 | 47.35773 | 8.30320 | 36006 ft | 470 kts | 27° |
| 2026-05-04 12:23 | 47.41530 | 8.34877 | 35992 ft | 469 kts | 27° |
| 2026-05-04 12:23 | 47.47278 | 8.39434 | 36003 ft | 468 kts | 27° |
| 2026-05-04 12:24 | 47.53019 | 8.43989 | 36018 ft | 467 kts | 27° |
| 2026-05-04 12:24 | 47.58748 | 8.48547 | 36011 ft | 467 kts | 27° |
| 2026-05-04 12:25 | 47.64474 | 8.53128 | 36009 ft | 467 kts | 27° |
| 2026-05-04 12:25 | 47.70149 | 8.57680 | 36012 ft | 467 kts | 27° |
| 2026-05-04 12:26 | 47.75873 | 8.62263 | 36001 ft | 467 kts | 27° |
| 2026-05-04 12:26 | 47.81599 | 8.66849 | 35988 ft | 467 kts | 27° |
| 2026-05-04 12:27 | 47.87309 | 8.71450 | 35989 ft | 467 kts | 27° |
| 2026-05-04 12:27 | 47.93027 | 8.76088 | 35996 ft | 467 kts | 27° |
| 2026-05-04 12:28 | 47.98704 | 8.80706 | 35988 ft | 468 kts | 27° |
| 2026-05-04 12:28 | 48.04422 | 8.85360 | 35991 ft | 468 kts | 27° |
| 2026-05-04 12:29 | 48.10138 | 8.90009 | 35993 ft | 468 kts | 27° |
| 2026-05-04 12:29 | 48.15972 | 8.94308 | 35474 ft | 467 kts | 17° |
| 2026-05-04 12:30 | 48.19111 | 8.95614 | 34619 ft | 469 kts | 7° |
| 2026-05-04 12:30 | 48.22330 | 8.96200 | 34091 ft | 462 kts | 1° |
| 2026-05-04 12:30 | 48.25517 | 8.96635 | 33524 ft | 459 kts | 2° |
| 2026-05-04 12:30 | 48.28680 | 8.97104 | 32999 ft | 454 kts | 2° |
| 2026-05-04 12:31 | 48.31810 | 8.97595 | 32473 ft | 451 kts | 2° |
| 2026-05-04 12:31 | 48.34925 | 8.98096 | 31945 ft | 448 kts | 2° |
| 2026-05-04 12:31 | 48.38013 | 8.98586 | 31431 ft | 444 kts | 2° |
| 2026-05-04 12:31 | 48.41078 | 8.99065 | 30920 ft | 441 kts | 2° |
| 2026-05-04 12:32 | 48.44264 | 8.99554 | 30381 ft | 439 kts | 2° |
| 2026-05-04 12:32 | 48.50161 | 9.00452 | 29354 ft | 432 kts | 2° |
| 2026-05-04 12:32 | 48.53099 | 9.00899 | 28876 ft | 428 kts | 2° |
| 2026-05-04 12:33 | 48.56051 | 9.01351 | 28399 ft | 423 kts | 2° |
| 2026-05-04 12:33 | 48.58966 | 9.01798 | 27924 ft | 419 kts | 2° |
| 2026-05-04 12:33 | 48.61851 | 9.02240 | 27471 ft | 414 kts | 3° |
| 2026-05-04 12:33 | 48.64699 | 9.02729 | 27023 ft | 411 kts | 5° |
| 2026-05-04 12:34 | 48.67523 | 9.03338 | 26586 ft | 407 kts | 6° |
| 2026-05-04 12:34 | 48.70300 | 9.04020 | 26154 ft | 404 kts | 7° |
| 2026-05-04 12:34 | 48.73062 | 9.04734 | 25724 ft | 401 kts | 7° |
| 2026-05-04 12:34 | 48.75797 | 9.05441 | 25282 ft | 398 kts | 7° |
| 2026-05-04 12:35 | 48.78518 | 9.06126 | 24845 ft | 395 kts | 7° |
| 2026-05-04 12:35 | 48.81227 | 9.06790 | 24390 ft | 393 kts | 7° |
| 2026-05-04 12:35 | 48.83929 | 9.07442 | 23943 ft | 392 kts | 7° |
| 2026-05-04 12:35 | 48.86611 | 9.08081 | 23464 ft | 391 kts | 7° |
| 2026-05-04 12:36 | 48.89294 | 9.08688 | 22966 ft | 388 kts | 5° |
| 2026-05-04 12:36 | 48.91967 | 9.09155 | 22509 ft | 385 kts | 4° |
| 2026-05-04 12:36 | 48.94917 | 9.09559 | 22006 ft | 382 kts | 2° |
| 2026-05-04 12:36 | 48.97580 | 9.09885 | 21545 ft | 381 kts | 2° |
| 2026-05-04 12:37 | 49.00052 | 9.10188 | 21123 ft | 379 kts | 2° |
| 2026-05-04 12:37 | 49.02690 | 9.10525 | 20652 ft | 379 kts | 3° |
| 2026-05-04 12:37 | 49.05321 | 9.10878 | 20180 ft | 378 kts | 3° |
| 2026-05-04 12:37 | 49.08251 | 9.11286 | 19655 ft | 378 kts | 3° |
| 2026-05-04 12:38 | 49.10568 | 9.11616 | 19240 ft | 378 kts | 4° |
| 2026-05-04 12:38 | 49.13179 | 9.11995 | 18769 ft | 377 kts | 4° |
| 2026-05-04 12:38 | 49.15788 | 9.12373 | 18295 ft | 377 kts | 4° |
| 2026-05-04 12:38 | 49.18405 | 9.12753 | 17760 ft | 377 kts | 4° |
| 2026-05-04 12:39 | 49.21219 | 9.13157 | 17261 ft | 380 kts | 4° |
| 2026-05-04 12:39 | 49.23677 | 9.13504 | 16926 ft | 396 kts | 4° |
| 2026-05-04 12:39 | 49.26520 | 9.13898 | 16556 ft | 399 kts | 4° |
| 2026-05-04 12:39 | 49.29037 | 9.14244 | 16230 ft | 398 kts | 4° |
| 2026-05-04 12:40 | 49.31804 | 9.14620 | 15874 ft | 396 kts | 4° |
| 2026-05-04 12:40 | 49.34782 | 9.15023 | 15494 ft | 393 kts | 4° |
| 2026-05-04 12:40 | 49.37252 | 9.15355 | 15172 ft | 391 kts | 4° |
| 2026-05-04 12:40 | 49.40201 | 9.15743 | 14817 ft | 389 kts | 4° |
| 2026-05-04 12:41 | 49.41930 | 9.15965 | 14599 ft | 388 kts | 4° |
| 2026-05-04 12:41 | 49.45564 | 9.16426 | 14148 ft | 384 kts | 4° |
| 2026-05-04 12:41 | 49.48224 | 9.16760 | 13815 ft | 382 kts | 4° |
| 2026-05-04 12:41 | 49.50634 | 9.17059 | 13478 ft | 380 kts | 4° |
| 2026-05-04 12:42 | 49.53492 | 9.17411 | 13074 ft | 378 kts | 4° |
| 2026-05-04 12:42 | 49.55884 | 9.17702 | 12741 ft | 376 kts | 4° |
| 2026-05-04 12:42 | 49.58487 | 9.18013 | 12377 ft | 374 kts | 4° |
| 2026-05-04 12:42 | 49.61076 | 9.18317 | 12015 ft | 372 kts | 4° |
| 2026-05-04 12:43 | 49.63651 | 9.18625 | 11661 ft | 370 kts | 4° |
| 2026-05-04 12:43 | 49.66208 | 9.18928 | 11310 ft | 367 kts | 4° |
| 2026-05-04 12:43 | 49.68724 | 9.19226 | 11018 ft | 357 kts | 4° |
| 2026-05-04 12:43 | 49.71167 | 9.19514 | 10772 ft | 347 kts | 4° |
| 2026-05-04 12:44 | 49.73545 | 9.19791 | 10528 ft | 338 kts | 4° |
| 2026-05-04 12:44 | 49.75869 | 9.20062 | 10283 ft | 331 kts | 4° |
| 2026-05-04 12:44 | 49.78137 | 9.20324 | 10072 ft | 323 kts | 4° |
| 2026-05-04 12:44 | 49.80338 | 9.20575 | 9985 ft | 310 kts | 4° |
| 2026-05-04 12:45 | 49.82463 | 9.20816 | 9856 ft | 303 kts | 4° |
| 2026-05-04 12:45 | 49.84534 | 9.21067 | 9522 ft | 302 kts | 4° |
| 2026-05-04 12:45 | 49.86650 | 9.21359 | 9203 ft | 300 kts | 4° |
| 2026-05-04 12:45 | 49.88722 | 9.21647 | 8883 ft | 297 kts | 4° |
| 2026-05-04 12:46 | 49.90741 | 9.21934 | 8563 ft | 294 kts | 4° |
| 2026-05-04 12:46 | 49.92763 | 9.22228 | 8296 ft | 289 kts | 4° |
| 2026-05-04 12:46 | 49.94746 | 9.22521 | 8029 ft | 283 kts | 3° |
| 2026-05-04 12:46 | 49.96684 | 9.22544 | 7801 ft | 274 kts | 350° |
| 2026-05-04 12:47 | 49.98529 | 9.21990 | 7585 ft | 266 kts | 344° |
| 2026-05-04 12:47 | 50.00310 | 9.21333 | 7370 ft | 260 kts | 344° |
| 2026-05-04 12:47 | 50.02045 | 9.20673 | 7152 ft | 254 kts | 344° |
| 2026-05-04 12:47 | 50.03741 | 9.20033 | 6949 ft | 248 kts | 344° |
| 2026-05-04 12:48 | 50.05408 | 9.19435 | 6673 ft | 244 kts | 344° |
| 2026-05-04 12:48 | 50.07062 | 9.18830 | 6346 ft | 244 kts | 344° |
| 2026-05-04 12:48 | 50.08651 | 9.17967 | 5999 ft | 240 kts | 328° |
| 2026-05-04 12:48 | 50.09987 | 9.16462 | 5700 ft | 235 kts | 315° |
| 2026-05-04 12:49 | 50.11201 | 9.14773 | 5469 ft | 234 kts | 314° |
| 2026-05-04 12:49 | 50.12376 | 9.13011 | 5219 ft | 233 kts | 307° |
| 2026-05-04 12:49 | 50.13186 | 9.10921 | 5051 ft | 227 kts | 288° |
| 2026-05-04 12:49 | 50.13678 | 9.08569 | 4941 ft | 229 kts | 284° |
| 2026-05-04 12:50 | 50.14111 | 9.06181 | 4858 ft | 228 kts | 283° |
| 2026-05-04 12:50 | 50.14398 | 9.03766 | 4766 ft | 226 kts | 268° |
| 2026-05-04 12:50 | 50.14073 | 9.01363 | 4700 ft | 225 kts | 250° |
| 2026-05-04 12:50 | 50.13537 | 8.99107 | 4629 ft | 223 kts | 249° |
| 2026-05-04 12:51 | 50.13007 | 8.96872 | 4355 ft | 220 kts | 250° |
| 2026-05-04 12:51 | 50.12487 | 8.94618 | 4136 ft | 218 kts | 249° |
| 2026-05-04 12:51 | 50.11982 | 8.92436 | 4028 ft | 210 kts | 249° |
| 2026-05-04 12:51 | 50.11489 | 8.90363 | 4007 ft | 199 kts | 249° |
| 2026-05-04 12:52 | 50.11028 | 8.88397 | 3998 ft | 187 kts | 249° |
| 2026-05-04 12:52 | 50.10600 | 8.86562 | 3983 ft | 176 kts | 249° |
| 2026-05-04 12:52 | 50.10178 | 8.84782 | 3803 ft | 175 kts | 249° |
| 2026-05-04 12:52 | 50.09760 | 8.82998 | 3572 ft | 175 kts | 249° |
| 2026-05-04 12:53 | 50.09342 | 8.81221 | 3371 ft | 175 kts | 249° |
| 2026-05-04 12:53 | 50.08919 | 8.79438 | 3169 ft | 175 kts | 249° |
| 2026-05-04 12:53 | 50.08491 | 8.77655 | 2879 ft | 177 kts | 248° |
| 2026-05-04 12:53 | 50.08051 | 8.75874 | 2610 ft | 180 kts | 248° |
| 2026-05-04 12:54 | 50.07630 | 8.74003 | 2315 ft | 181 kts | 256° |
| 2026-05-04 12:54 | 50.07482 | 8.72138 | 2136 ft | 168 kts | 263° |
| 2026-05-04 12:54 | 50.07255 | 8.70433 | 1947 ft | 155 kts | 250° |
| 2026-05-04 12:54 | 50.06933 | 8.68901 | 1789 ft | 143 kts | 251° |
| 2026-05-04 12:55 | 50.06605 | 8.67456 | 1628 ft | 142 kts | 248° |
| 2026-05-04 12:55 | 50.06248 | 8.66003 | 1378 ft | 145 kts | 248° |
| 2026-05-04 12:55 | 50.05896 | 8.64524 | 1172 ft | 148 kts | 249° |
| 2026-05-04 12:55 | 50.05543 | 8.63031 | 1016 ft | 145 kts | 250° |
| 2026-05-04 12:56 | 50.05191 | 8.61534 | 817 ft | 149 kts | 250° |
| 2026-05-04 12:56 | 50.04832 | 8.60037 | 625 ft | 146 kts | 250° |
| 2026-05-04 12:56 | 50.04480 | 8.58567 | 404 ft | 143 kts | 248° |
| 2026-05-04 12:56 | 50.04160 | 8.57226 | 365 ft | 114 kts | 249° |
| 2026-05-04 12:57 | 50.03994 | 8.56525 | 361 ft | 25 kts | 255° |
| 2026-05-04 12:57 | 50.04004 | 8.56263 | 351 ft | 24 kts | 279° |
| 2026-05-04 12:57 | 50.04078 | 8.56145 | 355 ft | 16 kts | 24° |
| 2026-05-04 12:57 | 50.04127 | 8.56277 | 359 ft | 13 kts | 69° |
| 2026-05-04 12:58 | 50.04156 | 8.56400 | 360 ft | 11 kts | 69° |
| 2026-05-04 12:58 | 50.04188 | 8.56535 | 358 ft | 16 kts | 70° |
| 2026-05-04 12:58 | 50.04226 | 8.56692 | 364 ft | 14 kts | 70° |
| 2026-05-04 12:58 | 50.04256 | 8.56817 | 364 ft | 11 kts | 70° |
| 2026-05-04 12:59 | 50.04279 | 8.56917 | 359 ft | 10 kts | 70° |
| 2026-05-04 12:59 | 50.04302 | 8.57013 | 363 ft | 10 kts | 70° |
| 2026-05-04 12:59 | 50.04325 | 8.57108 | 361 ft | 8 kts | 69° |
| 2026-05-04 12:59 | 50.04344 | 8.57185 | 367 ft | 7 kts | 69° |
| 2026-05-04 13:00 | 50.04365 | 8.57273 | 361 ft | 12 kts | 70° |
| 2026-05-04 13:00 | 50.04393 | 8.57394 | 365 ft | 11 kts | 70° |
| 2026-05-04 13:00 | 50.04423 | 8.57519 | 362 ft | 12 kts | 70° |
| 2026-05-04 13:00 | 50.04446 | 8.57616 | 368 ft | 8 kts | 69° |
| 2026-05-04 13:01 | 50.04470 | 8.57716 | 367 ft | 11 kts | 70° |
| 2026-05-04 13:01 | 50.04498 | 8.57833 | 366 ft | 12 kts | 70° |
| 2026-05-04 13:01 | 50.04527 | 8.57961 | 364 ft | 14 kts | 70° |
| 2026-05-04 13:01 | 50.04611 | 8.58017 | 364 ft | 17 kts | 339° |
| 2026-05-04 13:02 | 50.04726 | 8.57949 | 363 ft | 12 kts | 339° |
| 2026-05-04 13:02 | 50.04808 | 8.57901 | 358 ft | 15 kts | 335° |
| 2026-05-04 13:02 | 50.04873 | 8.57752 | 358 ft | 19 kts | 290° |
| 2026-05-04 13:02 | 50.04926 | 8.57560 | 358 ft | 16 kts | 294° |
| 2026-05-04 13:03 | 50.04961 | 8.57440 | 363 ft | 8 kts | 296° |
| 2026-05-04 13:03 | 50.04988 | 8.57405 | 360 ft | 3 kts | 336° |
| 2026-05-04 13:03 | 50.05001 | 8.57409 | 359 ft | 2 kts | 56° |
| 2026-05-04 13:03 | 50.05004 | 8.57428 | 360 ft | 1 kts | 75° |
| 2026-05-04 13:04 | 50.05004 | 8.57429 | 360 ft | 0 kts | 75° |